F/V Izaskun Berria — ECBA — position and weather

sailwx.info

Track history (hours):
 
Tides and Currents Weather Stations Pressure Air Temp Water Temp Dewpoint Dewpoint Depression Visibility Wind Speed Wind Dir Waves Ship Positions

F/V Izaskun Berria

Last reported at 2015-Nov-23 23:05 UTC. Time now 2016-Feb-10 20:04 UTC.
Position N 44°31' W 001°33'.
Warning: this ship's position is months out of date.

Length 36 m.

Type: Fishing. MMSI: 224086790.

Date/timePositionNaut miles runAvg speedWind from/ knotsBaromVisibWave heightAir tempDewpointWater temp
2015-Nov-23 23:05N 44°31' W 001°33'510.4
2015-Nov-23 22:33N 44°36' W 001°30'1 0.4
2015-Nov-23 20:32N 44°37' W 001°29'1 0.7
2015-Nov-23 19:34N 44°36' W 001°29'0 0.4
2015-Nov-23 18:33N 44°36' W 001°29'  
2015-Nov-17 16:26N 44°05' W 001°32'1 0.8
2015-Nov-17 15:33N 44°05' W 001°33'3 3.1
2015-Nov-17 14:33N 44°02' W 001°35'10 9.7
2015-Nov-17 13:29N 43°54' W 001°44'  
Track history (hours):
 
Tides and Currents Weather Stations Pressure Air Temp Water Temp Dewpoint Dewpoint Depression Visibility Wind Speed Wind Dir Waves Ship Positions

F/V Izaskun Berria

Last reported at 2015-Nov-23 23:05 UTC. Time now 2016-Feb-10 20:04 UTC.
Position N 44°31' W 001°33'.
Warning: this ship's position is months out of date.

Length 36 m.

Type: Fishing. MMSI: 224086790.

Date/timePositionNaut miles runAvg speedWind from/ knotsBaromVisibWave heightAir tempDewpointWater temp
2015-Nov-23 23:05N 44°31' W 001°33'510.4
2015-Nov-23 22:33N 44°36' W 001°30'1 0.4
2015-Nov-23 20:32N 44°37' W 001°29'1 0.7
2015-Nov-23 19:34N 44°36' W 001°29'0 0.4
2015-Nov-23 18:33N 44°36' W 001°29'  
2015-Nov-17 16:26N 44°05' W 001°32'1 0.8
2015-Nov-17 15:33N 44°05' W 001°33'3 3.1
2015-Nov-17 14:33N 44°02' W 001°35'10 9.7
2015-Nov-17 13:29N 43°54' W 001°44'  

Dump ship's entire track history